This is the latest recevied weather packets stored in our database for station/object KC5EZZ-2. If no packets are shown the sender has not sent any weather packets the latest 10 day(s).
| Time | Temp. | Humidity | Pressure | Rain* | Wind** | Luminosity | Snow |
|---|---|---|---|---|---|---|---|
| 1777751188 | 22.22° C | - | - | 0 mm | 3.13 m/s, 13° | - | - |
| 1777750889 | 23.33° C | - | - | 0 mm | 1.79 m/s, 236° | - | - |
| 1777750586 | 22.22° C | - | - | 0 mm | 1.79 m/s, 20° | - | - |
| 1777750287 | 21.67° C | - | - | 0 mm | 0.89 m/s, 170° | - | - |
| 1777749987 | 22.22° C | - | - | 0 mm | 2.68 m/s, 24° | - | - |
| 1777749685 | 22.78° C | - | - | 0 mm | 1.79 m/s, 15° | - | - |
| 1777749445 | 25° C | - | - | 0 mm | 0 m/s | - | - |
| 1777749385 | 25° C | - | - | 0 mm | 0 m/s | - | - |
| 1777749086 | 24.44° C | - | - | 0 mm | 0.45 m/s, 255° | - | - |
| 1777748783 | 23.33° C | - | - | 0 mm | 1.34 m/s, 281° | - | - |
| 1777748484 | 22.22° C | - | - | 0 mm | 2.24 m/s, 280° | - | - |
| 1777748184 | 21.67° C | - | - | 0 mm | 3.13 m/s, 51° | - | - |
| 1777747882 | 23.33° C | - | - | 0 mm | 0.45 m/s, 197° | - | - |
| 1777747582 | 22.78° C | - | - | 0 mm | 0.89 m/s, 266° | - | - |
| 1777747283 | 22.22° C | - | - | 0 mm | 1.79 m/s, 359° | - | - |
| 1777746980 | 20.56° C | - | - | 0 mm | 2.24 m/s, 304° | - | - |
| 1777746681 | 20° C | - | - | 0 mm | 3.13 m/s, 338° | - | - |
| 1777746381 | 20.56° C | - | - | 0 mm | 3.58 m/s, 329° | - | - |
| 1777746079 | 21.11° C | - | - | 0 mm | 1.79 m/s, 359° | - | - |
| 1777745779 | 20.56° C | - | - | 0 mm | 1.34 m/s, 333° | - | - |
| 1777745479 | 20.56° C | - | - | 0 mm | 1.79 m/s, 316° | - | - |
| 1777745177 | 20° C | - | - | 0 mm | 1.79 m/s, 354° | - | - |
| 1777744877 | 19.44° C | - | - | 0 mm | 3.58 m/s, 28° | - | - |
| 1777744578 | 20° C | - | - | 0 mm | 2.68 m/s, 11° | - | - |
| 1777744275 | 20.56° C | - | - | 0 mm | 3.58 m/s, 56° | - | - |
* Rain latest hour (hover to see other rain measurements)
** Current wind speed in m/s (hover to see current wind gust speed)